Time;durP1;ratioP1;P1;durP2;ratioP2;P2;SDS_P1;SDS_P2;PMS_P1;PMS_P2;Temp;Humidity;BMP_temperature;BMP_pressure;BME280_temperature;BME280_humidity;BME280_pressure;Samples;Min_cycle;Max_cycle;Signal;HPM_P1;HPM_P2
2023/12/21 00:00:07;;;;;;;114.83;62.63;;;;;;;6.06;72.85;93986.72;4993012;28;20241;-73
2023/12/21 00:02:34;;;;;;;115.03;61.13;;;;;;;6.17;72.83;94001.84;5011703;28;20198;-71
2023/12/21 00:05:01;;;;;;;99.37;58.00;;;;;;;6.25;72.79;94011.34;5012110;28;20188;-72
2023/12/21 00:07:28;;;;;;;99.43;56.27;;;;;;;6.25;73.03;94012.16;5012162;28;20212;-71
2023/12/21 00:09:56;;;;;;;94.87;55.30;;;;;;;6.28;72.85;94011.09;5012913;28;20202;-72
2023/12/21 00:12:24;;;;;;;97.40;51.17;;;;;;;6.29;72.89;94007.63;5012320;28;20637;-71
2023/12/21 00:14:52;;;;;;;92.60;48.80;;;;;;;6.32;72.94;94012.47;4992600;28;20197;-72
2023/12/21 00:17:19;;;;;;;85.87;48.73;;;;;;;6.35;72.86;94016.47;4992546;28;20280;-71
2023/12/21 00:19:45;;;;;;;78.73;47.23;;;;;;;6.38;72.86;94019.53;4992013;28;20201;-70
2023/12/21 00:22:12;;;;;;;79.63;45.67;;;;;;;6.41;72.97;94019.28;4992176;28;20709;-71
2023/12/21 00:24:39;;;;;;;68.53;41.93;;;;;;;6.31;72.96;94005.78;4991851;28;20646;-72
2023/12/21 00:27:06;;;;;;;78.40;42.13;;;;;;;6.49;73.03;94033.91;4992098;28;20216;-72
2023/12/21 00:29:33;;;;;;;80.93;41.47;;;;;;;6.52;72.94;94033.66;4992523;28;20188;-71
2023/12/21 00:32:01;;;;;;;69.97;36.90;;;;;;;6.54;73.00;94034.31;4992517;28;20300;-71
2023/12/21 00:34:28;;;;;;;67.50;38.13;;;;;;;6.57;73.11;94036.59;4992308;28;20205;-71
2023/12/21 00:36:54;;;;;;;60.77;35.90;;;;;;;6.61;73.02;94034.59;4992460;28;20193;-70
2023/12/21 00:39:21;;;;;;;59.57;35.77;;;;;;;6.63;73.12;94037.81;4992211;28;20189;-72
2023/12/21 00:41:48;;;;;;;57.50;33.53;;;;;;;6.62;73.02;94024.31;4992040;28;20225;-72
2023/12/21 00:44:14;;;;;;;49.57;30.60;;;;;;;6.55;73.02;94015.59;4991850;28;20201;-71
2023/12/21 00:46:41;;;;;;;61.77;31.37;;;;;;;6.59;73.31;94022.00;5008813;28;20227;-72
2023/12/21 00:49:09;;;;;;;50.57;30.43;;;;;;;6.77;73.25;94045.06;5011781;28;20254;-73
2023/12/21 00:51:36;;;;;;;47.57;28.80;;;;;;;6.79;73.30;94043.19;5011855;28;20204;-72
2023/12/21 00:54:03;;;;;;;45.73;28.47;;;;;;;6.79;73.26;94043.19;5011984;28;20197;-72
2023/12/21 00:56:30;;;;;;;45.73;26.73;;;;;;;6.87;73.33;94050.19;5015530;28;20185;-73
2023/12/21 00:58:59;;;;;;;42.00;26.10;;;;;;;6.44;73.26;93978.41;5026040;28;20188;-72
2023/12/21 01:01:26;;;;;;;42.57;25.73;;;;;;;6.91;73.41;94044.69;5011176;28;20252;-72
2023/12/21 01:03:52;;;;;;;40.53;24.93;;;;;;;6.73;73.21;94010.69;5011016;28;20614;-73
2023/12/21 01:06:21;;;;;;;39.27;24.63;;;;;;;6.96;73.51;94040.00;5011089;28;20214;-72
2023/12/21 01:08:47;;;;;;;38.27;23.70;;;;;;;6.60;73.51;93985.50;5011313;28;20630;-71
2023/12/21 01:11:14;;;;;;;33.37;21.03;;;;;;;7.01;73.53;94045.50;5011013;28;20665;-71
2023/12/21 01:13:41;;;;;;;33.57;21.30;;;;;;;7.04;73.23;94052.06;4991419;28;20196;-72
2023/12/21 01:16:09;;;;;;;34.23;20.93;;;;;;;7.07;73.55;94040.81;5003025;28;20188;-71
2023/12/21 01:18:37;;;;;;;34.30;20.73;;;;;;;6.81;73.41;94013.38;5011111;28;20200;-71
2023/12/21 01:21:04;;;;;;;34.63;21.30;;;;;;;7.12;73.44;94051.38;5010870;28;20212;-72
2023/12/21 01:23:32;;;;;;;32.77;21.67;;;;;;;7.13;73.45;94050.47;5010807;28;20598;-72
2023/12/21 01:25:59;;;;;;;34.23;20.17;;;;;;;6.93;73.43;94019.13;5011061;28;20247;-72
2023/12/21 01:28:26;;;;;;;25.67;19.07;;;;;;;7.18;73.52;94055.97;5010208;28;20188;-72
2023/12/21 01:30:53;;;;;;;29.53;19.23;;;;;;;6.91;73.49;94008.28;5010900;28;20593;-71
2023/12/21 01:33:19;;;;;;;27.97;18.57;;;;;;;7.21;73.28;94051.41;4992905;28;20197;-71
2023/12/21 01:35:46;;;;;;;27.23;18.20;;;;;;;7.23;72.98;94052.06;4991121;28;20189;-71
2023/12/21 01:38:13;;;;;;;29.67;17.80;;;;;;;6.80;73.39;93986.34;4990640;28;20193;-70
2023/12/21 01:40:41;;;;;;;23.70;15.77;;;;;;;7.27;73.36;94057.69;4990879;28;20213;-73
2023/12/21 01:43:08;;;;;;;27.27;16.30;;;;;;;7.19;73.19;94030.41;4991135;28;20713;-71
2023/12/21 01:45:35;;;;;;;24.30;15.90;;;;;;;7.10;73.19;94015.13;4992072;28;20196;-72
2023/12/21 01:48:02;;;;;;;23.17;15.67;;;;;;;7.31;73.30;94051.41;4991422;28;20196;-72
2023/12/21 01:50:29;;;;;;;23.03;15.77;;;;;;;7.10;73.15;94008.31;4990225;28;20307;-71
2023/12/21 01:52:58;;;;;;;22.93;15.07;;;;;;;7.34;72.84;94047.78;4990842;28;20194;-71
2023/12/21 01:55:27;;;;;;;24.40;15.53;;;;;;;7.11;73.21;94007.38;4990581;28;20200;-72
2023/12/21 01:57:55;;;;;;;24.50;14.43;;;;;;;7.34;72.88;94040.16;5009515;28;20616;-72
2023/12/21 02:00:23;;;;;;;21.77;14.30;;;;;;;7.38;73.08;94029.56;5009885;28;20207;-71
2023/12/21 02:02:51;;;;;;;25.00;15.70;;;;;;;7.41;72.84;94039.50;5010078;28;20631;-72
2023/12/21 02:05:17;;;;;;;24.47;14.43;;;;;;;7.42;72.99;94028.38;5010063;28;20197;-72
2023/12/21 02:07:44;;;;;;;21.97;15.00;;;;;;;7.18;72.91;93993.19;5010233;28;20197;-71
2023/12/21 02:10:11;;;;;;;22.37;12.83;;;;;;;7.46;72.93;94037.34;5009940;28;20208;-71
2023/12/21 02:12:38;;;;;;;21.40;13.27;;;;;;;7.48;72.77;94030.41;5009665;28;20211;-72
2023/12/21 02:15:08;;;;;;;23.23;12.87;;;;;;;7.50;72.85;94045.50;5009972;28;20192;-72
2023/12/21 02:17:35;;;;;;;22.03;12.07;;;;;;;7.51;72.82;94039.47;5010099;28;20299;-72
2023/12/21 02:20:03;;;;;;;22.50;11.97;;;;;;;7.52;72.65;94031.72;5009772;28;20739;-72
2023/12/21 02:22:30;;;;;;;19.97;12.47;;;;;;;7.53;72.70;94037.63;5009618;28;20586;-72
2023/12/21 02:24:59;;;;;;;20.73;13.73;;;;;;;7.55;72.82;94043.34;5009800;28;20196;-72
2023/12/21 02:27:25;;;;;;;18.93;12.53;;;;;;;7.55;72.63;94033.19;5009751;28;20736;-72
2023/12/21 02:29:52;;;;;;;24.03;13.13;;;;;;;7.56;72.69;94036.56;5010179;28;20694;-71
2023/12/21 02:32:19;;;;;;;19.87;12.37;;;;;;;7.36;72.80;94006.03;5009641;28;20184;-71
2023/12/21 02:34:46;;;;;;;19.20;13.67;;;;;;;7.40;72.71;94020.09;5009854;28;20197;-72
2023/12/21 02:37:12;;;;;;;21.20;13.23;;;;;;;7.58;72.86;94044.84;5008912;28;20188;-71
2023/12/21 02:39:39;;;;;;;23.80;13.83;;;;;;;7.59;72.53;94046.44;5010300;28;20195;-72
2023/12/21 02:42:07;;;;;;;22.33;14.77;;;;;;;7.07;72.67;93959.47;5009298;28;20212;-72
2023/12/21 02:44:34;;;;;;;20.17;13.77;;;;;;;7.59;72.75;94041.34;5007572;28;20188;-72
2023/12/21 02:47:01;;;;;;;19.50;13.50;;;;;;;7.58;72.67;94044.84;4989847;28;20237;-71
2023/12/21 02:49:28;;;;;;;22.63;14.83;;;;;;;7.58;72.63;94048.19;4992078;28;20200;-71
2023/12/21 02:51:55;;;;;;;22.97;14.57;;;;;;;7.41;72.68;94020.88;4994290;28;20283;-71
2023/12/21 02:54:21;;;;;;;25.53;14.80;;;;;;;7.50;72.65;94040.41;4994100;28;20189;-71
2023/12/21 02:56:48;;;;;;;20.67;15.00;;;;;;;7.57;72.72;94064.41;4993670;28;20654;-73
2023/12/21 02:59:16;;;;;;;19.67;14.23;;;;;;;7.58;72.61;94053.28;4994217;28;20658;-73
2023/12/21 03:01:43;;;;;;;20.37;14.77;;;;;;;7.59;72.70;94048.97;4998064;28;20211;-71
2023/12/21 03:04:10;;;;;;;20.97;14.63;;;;;;;7.45;72.35;94022.22;5013508;28;20188;-73
2023/12/21 03:06:37;;;;;;;19.57;14.13;;;;;;;7.32;72.63;94008.97;5000707;28;20196;-72
2023/12/21 03:09:04;;;;;;;20.63;13.70;;;;;;;7.62;72.70;94053.81;4994146;28;20193;-71
2023/12/21 03:11:30;;;;;;;18.20;13.27;;;;;;;7.20;72.69;93990.50;4994013;28;20188;-73
2023/12/21 03:13:57;;;;;;;20.67;13.13;;;;;;;7.58;72.56;94040.56;4993719;28;20248;-73
2023/12/21 03:16:25;;;;;;;23.47;13.27;;;;;;;7.49;72.63;94034.53;5009713;28;20180;-72
2023/12/21 03:18:52;;;;;;;19.20;13.70;;;;;;;7.60;72.79;94055.66;4993659;28;20264;-71
2023/12/21 03:21:19;;;;;;;17.33;12.60;;;;;;;7.72;72.62;94075.75;4988456;28;20228;-71
2023/12/21 03:23:46;;;;;;;16.17;12.73;;;;;;;7.64;72.28;94049.38;5013159;28;20297;-71
2023/12/21 03:26:13;;;;;;;18.10;12.27;;;;;;;7.79;72.50;94063.31;5013431;28;20196;-73
2023/12/21 03:28:44;;;;;;;16.07;11.37;;;;;;;7.62;72.17;94041.09;5013275;28;20685;-73
2023/12/21 03:31:11;;;;;;;16.63;12.23;;;;;;;7.71;72.57;94050.44;5013804;28;20196;-72
2023/12/21 03:33:39;;;;;;;16.47;11.93;;;;;;;7.54;72.44;94021.41;5018022;28;20184;-72
2023/12/21 03:36:07;;;;;;;17.10;10.87;;;;;;;7.92;72.29;94074.00;5001817;28;20255;-72
2023/12/21 03:38:34;;;;;;;15.60;11.03;;;;;;;7.96;72.34;94075.31;4993442;28;20193;-73
2023/12/21 03:41:01;;;;;;;15.87;11.03;;;;;;;7.82;72.31;94057.16;4993495;28;20186;-71
2023/12/21 03:43:27;;;;;;;13.37;10.53;;;;;;;8.01;72.24;94083.34;4992934;28;20548;-72
2023/12/21 03:45:54;;;;;;;13.33;9.77;;;;;;;7.94;72.19;94061.91;4992796;28;20701;-72
2023/12/21 03:48:21;;;;;;;15.90;10.63;;;;;;;8.07;72.23;94076.91;4992949;28;20201;-72
2023/12/21 03:50:48;;;;;;;14.30;10.27;;;;;;;7.82;72.14;94029.94;4992803;28;20271;-72
2023/12/21 03:53:16;;;;;;;12.63;9.70;;;;;;;8.13;71.95;94076.38;4993280;28;20189;-72
2023/12/21 03:55:43;;;;;;;11.50;9.17;;;;;;;8.14;72.04;94077.97;4992722;28;20291;-72
2023/12/21 03:58:10;;;;;;;13.27;9.53;;;;;;;8.16;71.88;94083.75;4993025;28;20196;-72
2023/12/21 04:00:37;;;;;;;12.20;9.70;;;;;;;8.13;71.99;94073.81;4992066;28;20185;-71
2023/12/21 04:03:04;;;;;;;11.03;9.00;;;;;;;7.92;72.13;94040.91;4992822;28;20307;-73
2023/12/21 04:05:31;;;;;;;12.00;9.47;;;;;;;8.22;71.87;94088.28;4992274;28;20197;-72
2023/12/21 04:07:59;;;;;;;12.37;8.93;;;;;;;8.11;72.12;94072.34;4992812;28;20573;-72
2023/12/21 04:10:26;;;;;;;9.83;8.63;;;;;;;8.23;71.92;94086.53;4992430;28;20197;-72
2023/12/21 04:12:53;;;;;;;12.87;9.53;;;;;;;8.26;71.84;94084.50;4992585;28;20204;-71
2023/12/21 04:15:20;;;;;;;11.30;8.47;;;;;;;8.22;71.98;94088.28;4992731;28;20197;-72
2023/12/21 04:17:46;;;;;;;13.47;9.13;;;;;;;8.08;71.84;94054.81;4992701;28;20248;-71
2023/12/21 04:20:13;;;;;;;12.23;8.73;;;;;;;8.32;71.83;94084.88;4992571;28;20197;-72
2023/12/21 04:22:40;;;;;;;11.20;8.10;;;;;;;8.32;71.79;94083.13;4991904;28;20229;-71
2023/12/21 04:25:09;;;;;;;12.47;9.40;;;;;;;8.34;71.74;94081.28;4992602;28;20193;-72
2023/12/21 04:27:36;;;;;;;13.63;8.93;;;;;;;8.35;71.76;94079.53;4992005;28;20677;-71
2023/12/21 04:30:03;;;;;;;13.83;8.73;;;;;;;8.08;71.85;94039.53;4992324;28;20573;-71
2023/12/21 04:32:30;;;;;;;10.73;8.53;;;;;;;7.86;71.64;94005.00;4992101;28;20212;-71
2023/12/21 04:34:57;;;;;;;9.53;8.17;;;;;;;8.18;71.54;94058.13;4992115;28;20256;-72
2023/12/21 04:37:24;;;;;;;11.13;8.20;;;;;;;8.24;71.89;94062.66;4992215;28;20185;-71
2023/12/21 04:39:51;;;;;;;11.17;8.23;;;;;;;8.41;71.54;94091.72;4992346;28;20573;-72
2023/12/21 04:42:19;;;;;;;10.53;7.83;;;;;;;8.42;71.76;94093.31;4992120;28;20588;-72
2023/12/21 04:44:46;;;;;;;8.97;7.63;;;;;;;8.42;71.51;94095.88;4992075;28;20205;-71
2023/12/21 04:47:13;;;;;;;10.43;8.10;;;;;;;8.13;71.51;94039.91;4991766;28;20614;-72
2023/12/21 04:49:39;;;;;;;9.80;8.10;;;;;;;8.44;71.37;94094.00;4991718;28;20658;-72
2023/12/21 04:52:07;;;;;;;10.03;7.73;;;;;;;8.36;71.53;94083.66;4991777;28;20644;-73
2023/12/21 04:54:33;;;;;;;9.23;7.10;;;;;;;8.45;71.47;94093.06;4991433;28;20185;-73
2023/12/21 04:57:00;;;;;;;9.73;7.57;;;;;;;8.45;71.44;94086.19;4991804;28;20197;-73
2023/12/21 04:59:29;;;;;;;9.67;7.83;;;;;;;8.39;71.31;94068.94;4991790;28;20201;-74
2023/12/21 05:01:56;;;;;;;10.03;7.13;;;;;;;8.39;71.31;94084.22;4991822;28;20229;-72
2023/12/21 05:04:23;;;;;;;9.10;7.73;;;;;;;8.45;71.55;94082.84;4991586;28;20300;-72
2023/12/21 05:06:50;;;;;;;10.90;7.97;;;;;;;8.48;71.47;94097.88;4991223;28;20232;-72
2023/12/21 05:09:17;;;;;;;10.50;7.93;;;;;;;8.46;71.32;94084.44;4991543;28;20213;-71
2023/12/21 05:11:45;;;;;;;8.50;7.10;;;;;;;8.49;71.32;94090.06;4993691;28;20555;-71
2023/12/21 05:14:12;;;;;;;10.27;8.17;;;;;;;8.27;71.24;94060.63;5010106;28;20256;-70
2023/12/21 05:16:40;;;;;;;9.73;7.73;;;;;;;8.50;71.23;94091.69;5010899;28;20196;-73
2023/12/21 05:19:07;;;;;;;9.63;7.37;;;;;;;8.11;71.04;94031.59;5011570;28;20227;-71
2023/12/21 05:21:34;;;;;;;9.50;7.47;;;;;;;8.49;71.13;94104.56;5010738;28;20266;-71
2023/12/21 05:24:01;;;;;;;9.50;7.07;;;;;;;8.52;71.03;94104.28;5010815;28;20641;-72
2023/12/21 05:26:28;;;;;;;11.27;7.60;;;;;;;8.52;71.10;94106.84;4998488;28;20724;-72
2023/12/21 05:28:57;;;;;;;8.90;7.13;;;;;;;8.52;71.29;94111.94;4991120;28;20709;-72
2023/12/21 05:31:24;;;;;;;9.80;7.23;;;;;;;8.53;71.14;94114.34;5001354;28;20194;-71
2023/12/21 05:33:52;;;;;;;8.87;7.80;;;;;;;8.43;71.07;94097.50;5010562;28;20653;-73
2023/12/21 05:36:23;;;;;;;8.83;7.70;;;;;;;8.34;70.93;94075.38;5010405;28;20254;-72
2023/12/21 05:38:50;;;;;;;9.03;7.23;;;;;;;8.54;71.05;94110.03;5010854;28;20235;-73
2023/12/21 05:41:17;;;;;;;9.27;7.47;;;;;;;8.38;70.94;94075.00;4998013;28;20185;-72
2023/12/21 05:43:44;;;;;;;8.20;7.23;;;;;;;8.34;70.89;94067.72;4990837;28;20279;-72
2023/12/21 05:46:11;;;;;;;8.77;6.87;;;;;;;8.51;70.96;94088.22;4990808;28;20674;-74
2023/12/21 05:48:38;;;;;;;8.13;7.20;;;;;;;8.53;70.89;94090.59;4990929;28;20188;-73
2023/12/21 05:51:06;;;;;;;10.23;7.70;;;;;;;8.49;70.87;94089.28;4990374;28;20239;-72
2023/12/21 05:53:33;;;;;;;10.67;7.60;;;;;;;8.53;70.69;94088.06;4991056;28;20220;-71
2023/12/21 05:56:01;;;;;;;7.53;6.37;;;;;;;8.45;70.52;94075.22;4990526;28;20746;-72
2023/12/21 05:58:27;;;;;;;8.53;7.17;;;;;;;8.26;70.92;94038.66;4991354;28;20185;-72
2023/12/21 06:00:54;;;;;;;9.73;7.70;;;;;;;8.54;70.76;94084.56;4990838;28;20220;-70
2023/12/21 06:03:21;;;;;;;7.90;6.73;;;;;;;7.97;71.00;93997.19;4991059;28;20332;-72
2023/12/21 06:05:48;;;;;;;8.97;6.90;;;;;;;8.54;70.87;94080.25;4990763;28;20635;-70
2023/12/21 06:08:16;;;;;;;10.00;7.57;;;;;;;8.57;70.38;94086.84;4991877;28;20229;-73
2023/12/21 06:10:43;;;;;;;8.80;7.07;;;;;;;8.58;70.66;94088.44;5004740;28;20196;-71
2023/12/21 06:13:10;;;;;;;8.97;7.07;;;;;;;8.60;70.61;94090.88;5026121;28;20202;-75
2023/12/21 06:15:36;;;;;;;10.53;7.33;;;;;;;8.69;70.73;94090.81;5021015;28;20200;-74
2023/12/21 06:18:04;;;;;;;9.70;6.53;;;;;;;8.66;91.70;94049.50;5015554;28;20204;-76
2023/12/21 06:20:34;;;;;;;9.27;6.73;;;;;;;9.84;100.00;94084.28;5010040;28;20307;-69
2023/12/21 06:23:01;;;;;;;7.53;5.83;;;;;;;10.89;100.00;94079.00;5009815;28;20231;-76
2023/12/21 06:25:29;;;;;;;7.67;5.10;;;;;;;11.85;98.17;94078.53;5016459;28;20246;-73
2023/12/21 06:27:56;;;;;;;10.23;6.83;;;;;;;12.33;94.35;94064.06;5016735;28;20188;-75
2023/12/21 06:30:23;;;;;;;12.03;6.30;;;;;;;12.68;91.25;94073.09;5016871;28;20669;-73
2023/12/21 06:32:50;;;;;;;11.93;6.20;;;;;;;12.97;87.86;94084.53;5016370;28;20291;-74
2023/12/21 06:35:17;;;;;;;7.63;6.23;;;;;;;13.17;85.80;94075.47;5016711;28;20184;-72
2023/12/21 06:37:45;;;;;;;9.30;5.97;;;;;;;13.34;83.54;94067.69;5016408;28;20196;-76
2023/12/21 06:40:12;;;;;;;7.67;6.60;;;;;;;13.63;81.81;94083.25;5016603;28;20188;-72
2023/12/21 06:42:40;;;;;;;6.53;5.83;;;;;;;13.90;79.74;94086.25;5016185;28;20711;-73
2023/12/21 06:45:07;;;;;;;8.47;5.43;;;;;;;14.15;78.44;94095.34;5016569;28;20208;-72
2023/12/21 06:47:34;;;;;;;8.30;6.67;;;;;;;14.35;77.94;94084.59;5016390;28;20224;-72
2023/12/21 06:50:00;;;;;;;8.57;5.90;;;;;;;14.46;76.85;94054.06;5016455;28;20184;-73
2023/12/21 06:52:27;;;;;;;8.50;5.07;;;;;;;15.04;76.18;94106.53;5011897;28;20181;-71
2023/12/21 06:54:54;;;;;;;6.77;6.07;;;;;;;15.37;75.20;94115.63;5011898;28;20185;-72
2023/12/21 06:57:20;;;;;;;7.73;6.47;;;;;;;15.65;74.04;94110.63;5001269;28;20252;-72
2023/12/21 06:59:49;;;;;;;7.00;5.70;;;;;;;16.00;72.96;94111.56;4996390;28;20197;-74
2023/12/21 07:02:16;;;;;;;8.17;6.03;;;;;;;16.29;71.69;94110.59;5009990;28;20203;-72
2023/12/21 07:04:43;;;;;;;8.97;5.73;;;;;;;16.58;70.74;94109.63;5015925;28;20196;-74
2023/12/21 07:07:09;;;;;;;8.13;5.97;;;;;;;16.87;69.54;94111.22;5015492;28;20207;-73
2023/12/21 07:09:36;;;;;;;7.17;5.87;;;;;;;17.17;68.60;94110.97;5004011;28;20197;-74
2023/12/21 07:12:05;;;;;;;6.63;5.90;;;;;;;17.39;67.59;94106.47;4996491;28;20666;-68
2023/12/21 07:14:33;;;;;;;11.97;5.93;;;;;;;17.70;66.48;94113.72;4996305;28;20197;-71
2023/12/21 07:17:02;;;;;;;5.63;5.03;;;;;;;17.94;65.67;94105.44;5008949;28;20203;-72
2023/12/21 07:19:28;;;;;;;6.13;5.40;;;;;;;18.24;64.78;94118.81;5015836;28;20192;-71
2023/12/21 07:21:55;;;;;;;6.60;5.23;;;;;;;18.46;64.22;94123.78;5014492;28;20721;-74
2023/12/21 07:24:22;;;;;;;6.50;5.80;;;;;;;18.45;63.14;94085.94;5015871;28;20209;-73
2023/12/21 07:26:49;;;;;;;7.63;5.60;;;;;;;18.79;62.40;94110.84;5009330;28;20192;-73
2023/12/21 07:29:16;;;;;;;6.73;5.40;;;;;;;19.10;61.80;94119.72;5010321;28;20201;-73
2023/12/21 07:31:44;;;;;;;7.13;5.23;;;;;;;19.30;60.70;94120.47;5014332;28;20200;-72
2023/12/21 07:34:12;;;;;;;6.20;5.50;;;;;;;19.47;59.86;94119.00;5015059;28;20258;-72
2023/12/21 07:36:39;;;;;;;6.45;5.50;;;;;;;19.61;59.13;94117.16;5009131;28;20577;-72
2023/12/21 07:39:05;;;;;;;5.75;4.93;;;;;;;19.80;58.77;94120.66;5011816;28;20669;-73
2023/12/21 07:41:33;;;;;;;6.90;5.25;;;;;;;19.78;58.04;94109.69;5010010;28;20291;-72
2023/12/21 07:43:59;;;;;;;6.90;5.20;;;;;;;19.72;57.61;94123.47;5007250;28;20584;-73
2023/12/21 07:46:26;;;;;;;6.25;5.32;;;;;;;19.20;57.97;94069.03;5011072;28;20232;-74
2023/12/21 07:48:53;;;;;;;6.53;5.40;;;;;;;19.33;58.06;94132.22;5011533;28;20196;-73
2023/12/21 07:51:21;;;;;;;7.18;5.88;;;;;;;19.06;57.68;94134.88;5010213;28;20192;-73
2023/12/21 07:53:48;;;;;;;6.78;5.68;;;;;;;18.70;57.71;94136.16;5011161;28;20320;-71
2023/12/21 07:56:15;;;;;;;7.43;5.37;;;;;;;18.47;57.58;94149.47;5009940;28;20181;-72
2023/12/21 07:58:42;;;;;;;6.77;5.43;;;;;;;18.00;57.85;94120.19;5011327;28;20195;-72
2023/12/21 08:01:08;;;;;;;6.00;5.43;;;;;;;17.66;57.37;94115.91;5008821;28;20192;-74
2023/12/21 08:03:35;;;;;;;5.57;4.80;;;;;;;17.69;57.18;94143.16;5010996;28;20208;-73
2023/12/21 08:06:02;;;;;;;6.10;5.50;;;;;;;17.62;56.67;94140.56;5010979;28;20204;-74
2023/12/21 08:08:30;;;;;;;5.73;5.10;;;;;;;17.44;56.31;94137.69;5010995;28;20188;-74
2023/12/21 08:10:57;;;;;;;6.03;5.43;;;;;;;17.30;56.40;94147.19;5011132;28;20272;-73
2023/12/21 08:13:24;;;;;;;7.63;5.57;;;;;;;17.12;56.42;94152.88;5008665;28;20184;-73
2023/12/21 08:15:51;;;;;;;6.10;5.40;;;;;;;16.97;56.44;94147.03;5009870;28;20196;-74
2023/12/21 08:18:18;;;;;;;6.73;5.03;;;;;;;17.00;56.27;94150.03;5010506;28;20220;-73
2023/12/21 08:20:47;;;;;;;6.00;5.17;;;;;;;16.93;56.23;94145.81;5009379;28;20188;-74
2023/12/21 08:23:14;;;;;;;5.70;5.10;;;;;;;16.61;56.32;94116.97;5004588;28;20589;-75
2023/12/21 08:25:42;;;;;;;7.00;5.37;;;;;;;16.72;56.30;94155.22;5011256;28;20192;-75
2023/12/21 08:28:09;;;;;;;6.30;5.10;;;;;;;16.63;56.41;94152.94;5010881;28;20196;-75
2023/12/21 08:30:36;;;;;;;8.30;5.90;;;;;;;16.36;56.49;94118.38;5012642;28;20203;-76
2023/12/21 08:33:03;;;;;;;5.03;4.60;;;;;;;16.68;56.04;94163.50;5011072;28;20200;-75
2023/12/21 08:35:30;;;;;;;5.90;4.73;;;;;;;16.84;55.38;94152.94;5010714;28;20576;-74
2023/12/21 08:37:59;;;;;;;6.60;5.30;;;;;;;16.99;55.00;94156.19;5009101;28;20930;-75
2023/12/21 08:40:26;;;;;;;5.43;4.57;;;;;;;17.08;54.32;94141.31;5010982;28;20192;-75
2023/12/21 08:42:54;;;;;;;6.17;4.97;;;;;;;17.05;54.43;94150.28;5010641;28;20676;-76
2023/12/21 08:45:21;;;;;;;5.87;4.93;;;;;;;16.73;54.62;94125.84;5010801;28;20614;-73
2023/12/21 08:47:48;;;;;;;6.90;5.23;;;;;;;16.72;54.59;94142.31;5012400;28;20287;-72
2023/12/21 08:50:15;;;;;;;5.70;5.10;;;;;;;16.56;54.61;94137.41;5022155;28;20200;-72
2023/12/21 08:52:42;;;;;;;6.27;4.77;;;;;;;16.43;54.62;94137.31;5013579;28;20286;-75
2023/12/21 08:55:09;;;;;;;4.93;4.47;;;;;;;16.31;54.46;94132.66;5007912;28;20555;-72
2023/12/21 08:57:37;;;;;;;5.63;4.60;;;;;;;16.21;54.51;94134.75;5009876;28;20692;-76
2023/12/21 09:00:08;;;;;;;5.60;4.70;;;;;;;16.13;54.70;94124.56;5010545;28;20184;-72
2023/12/21 09:02:35;;;;;;;6.00;5.10;;;;;;;15.95;54.76;94101.00;5010096;28;20224;-73
2023/12/21 09:05:02;;;;;;;5.47;4.97;;;;;;;16.02;54.93;94119.91;5008330;28;20308;-72
2023/12/21 09:07:29;;;;;;;7.23;4.77;;;;;;;15.97;54.91;94111.91;5010232;28;20360;-75
2023/12/21 09:09:56;;;;;;;6.93;5.40;;;;;;;15.81;54.82;94100.09;5010000;28;20778;-72
2023/12/21 09:12:22;;;;;;;9.60;4.73;;;;;;;15.84;54.90;94109.22;5010181;28;20196;-72
2023/12/21 09:14:49;;;;;;;5.03;4.53;;;;;;;15.75;54.92;94105.97;5010068;28;20184;-73
2023/12/21 09:17:19;;;;;;;8.23;5.40;;;;;;;15.55;55.05;94096.22;5009890;28;20203;-73
2023/12/21 09:19:46;;;;;;;7.00;4.57;;;;;;;15.35;55.06;94061.72;5008413;28;20275;-75
2023/12/21 09:22:13;;;;;;;5.57;4.97;;;;;;;15.39;54.79;94062.16;5008934;28;20279;-75
2023/12/21 09:24:40;;;;;;;4.90;4.47;;;;;;;15.46;55.12;94089.59;5007763;28;20242;-75
2023/12/21 09:27:07;;;;;;;7.17;5.33;;;;;;;15.40;55.18;94087.72;5006991;28;20185;-72
2023/12/21 09:29:33;;;;;;;5.43;4.63;;;;;;;15.34;55.23;94085.09;5009725;28;20196;-74
2023/12/21 09:32:00;;;;;;;5.33;4.70;;;;;;;15.06;55.20;94053.06;5010009;28;20517;-76
2023/12/21 09:34:28;;;;;;;6.77;4.67;;;;;;;14.93;55.13;94042.63;5009352;28;20247;-74
2023/12/21 09:36:55;;;;;;;5.27;4.30;;;;;;;15.15;55.31;94082.09;5007705;28;20752;-75
2023/12/21 09:39:22;;;;;;;6.37;4.70;;;;;;;15.02;55.62;94080.16;5005986;28;20263;-74
2023/12/21 09:41:49;;;;;;;5.07;4.53;;;;;;;14.89;55.51;94080.00;5009214;28;20211;-74
2023/12/21 09:44:17;;;;;;;4.93;4.20;;;;;;;14.76;55.49;94061.81;5009659;28;20212;-74
2023/12/21 09:46:45;;;;;;;4.93;4.47;;;;;;;14.54;55.69;94043.72;5009045;28;20224;-75
2023/12/21 09:49:14;;;;;;;5.93;4.40;;;;;;;14.62;55.58;94063.44;5007424;28;20303;-74
2023/12/21 09:51:44;;;;;;;5.67;4.93;;;;;;;14.28;55.64;94010.69;5003356;28;20192;-74
2023/12/21 09:54:12;;;;;;;5.07;4.27;;;;;;;14.46;55.45;94041.19;5009303;28;20360;-75
2023/12/21 09:56:40;;;;;;;6.47;4.70;;;;;;;14.43;55.59;94040.78;5009094;28;20660;-75
2023/12/21 09:59:10;;;;;;;5.70;3.83;;;;;;;14.08;55.43;93990.84;5006569;28;20185;-75
2023/12/21 10:01:37;;;;;;;6.90;4.30;;;;;;;14.31;55.41;94033.50;4995282;28;20654;-76
2023/12/21 10:04:04;;;;;;;4.80;4.30;;;;;;;14.28;55.58;94038.19;5009000;28;20212;-75
2023/12/21 10:06:31;;;;;;;7.20;4.30;;;;;;;14.20;55.49;94022.84;5009507;28;20197;-75
2023/12/21 10:08:59;;;;;;;4.43;3.87;;;;;;;14.18;55.82;94014.50;5009004;28;20204;-77
2023/12/21 10:11:26;;;;;;;5.90;3.73;;;;;;;14.08;55.81;93998.56;5009317;28;20189;-77
2023/12/21 10:13:56;;;;;;;4.30;3.90;;;;;;;14.07;55.90;93997.72;5007833;28;20192;-75
2023/12/21 10:16:26;;;;;;;5.47;4.20;;;;;;;14.02;55.94;93998.25;5008999;28;20203;-75
2023/12/21 10:18:53;;;;;;;6.27;4.73;;;;;;;13.85;55.93;93970.31;5004319;28;20280;-75
2023/12/21 10:21:21;;;;;;;5.37;4.27;;;;;;;13.95;55.64;93992.25;5008288;28;20192;-75
2023/12/21 10:23:48;;;;;;;4.10;3.70;;;;;;;13.88;55.90;93988.75;5008159;28;20303;-72
2023/12/21 10:26:17;;;;;;;4.63;3.80;;;;;;;13.85;55.97;93975.47;5008348;28;20192;-72
2023/12/21 10:28:43;;;;;;;4.60;4.10;;;;;;;13.94;55.89;93980.34;5007783;28;20649;-73
2023/12/21 10:31:10;;;;;;;4.53;3.87;;;;;;;13.96;55.71;93972.47;5009435;28;20227;-74
2023/12/21 10:33:37;;;;;;;4.53;4.07;;;;;;;13.85;55.69;93942.06;5012122;28;20662;-73
2023/12/21 10:36:05;;;;;;;4.87;3.80;;;;;;;13.97;55.79;93954.28;5014745;28;20562;-74
2023/12/21 10:38:32;;;;;;;5.67;4.10;;;;;;;13.96;55.72;93955.28;5013073;28;20192;-74
2023/12/21 10:41:05;;;;;;;5.43;3.87;;;;;;;13.98;55.74;93952.50;5012744;28;20239;-74
2023/12/21 10:43:34;;;;;;;4.87;4.00;;;;;;;13.85;55.51;93924.06;5009295;28;20700;-75
2023/12/21 10:46:02;;;;;;;5.00;3.90;;;;;;;13.99;55.55;93941.28;5008845;28;20250;-74
2023/12/21 10:48:32;;;;;;;4.73;3.93;;;;;;;14.04;55.61;93937.19;5007294;28;20193;-75
2023/12/21 10:50:59;;;;;;;4.73;4.10;;;;;;;14.06;55.60;93932.66;5008228;28;20188;-76
2023/12/21 10:53:30;;;;;;;4.20;3.80;;;;;;;14.05;55.45;93928.50;5008677;28;20335;-73
2023/12/21 10:55:58;;;;;;;6.23;4.00;;;;;;;13.91;55.35;93893.31;5007069;28;20578;-78
2023/12/21 10:58:25;;;;;;;4.13;3.10;;;;;;;14.06;55.45;93913.88;5008798;28;20208;-76
2023/12/21 11:00:55;;;;;;;3.37;3.07;;;;;;;14.08;55.41;93903.44;5008446;28;20192;-77
2023/12/21 11:03:22;;;;;;;4.93;3.60;;;;;;;13.88;55.28;93869.75;5008114;28;20176;-76
2023/12/21 11:05:49;;;;;;;4.87;3.80;;;;;;;13.97;55.51;93881.53;5008497;28;20201;-75
2023/12/21 11:08:16;;;;;;;5.03;3.67;;;;;;;13.97;55.44;93891.81;5008867;28;20216;-73
2023/12/21 11:10:44;;;;;;;4.67;3.80;;;;;;;13.99;55.44;93895.81;5009341;28;20189;-75
2023/12/21 11:13:11;;;;;;;4.00;3.60;;;;;;;13.99;55.47;93897.59;5010861;28;20196;-75
2023/12/21 11:15:38;;;;;;;3.93;3.53;;;;;;;13.86;55.24;93869.09;5011385;28;20192;-79
2023/12/21 11:18:10;;;;;;;4.07;3.67;;;;;;;13.95;55.23;93892.00;5012146;28;20188;-77
2023/12/21 11:20:42;;;;;;;5.50;3.70;;;;;;;13.92;55.21;93887.19;5012055;28;20212;-75
2023/12/21 11:23:11;;;;;;;4.83;3.93;;;;;;;13.70;55.23;93857.25;5012697;28;20200;-75
2023/12/21 11:25:38;;;;;;;4.60;3.50;;;;;;;13.89;55.31;93879.84;5015702;28;20242;-77
2023/12/21 11:28:05;;;;;;;4.50;3.50;;;;;;;13.88;55.24;93875.69;5019602;28;20196;-74
2023/12/21 11:30:32;;;;;;;3.87;3.40;;;;;;;13.87;55.10;93860.44;5013120;28;20584;-72